Metar z połowy godziny Komunikat METAR ze strony awiacja.imgw.pl Metar G00 EPMO METAR EPMO 212230Z 07009KT CAVOK 17/12 Q1013 =